Time;durP1;ratioP1;P1;durP2;ratioP2;P2;SDS_P1;SDS_P2;PMS_P1;PMS_P2;Temp;Humidity;BMP_temperature;BMP_pressure;BME280_temperature;BME280_humidity;BME280_pressure;Samples;Min_cycle;Max_cycle;Signal;HPM_P1;HPM_P2
2022/08/07 00:00:29;;;;;;;3.72;3.42;;;;;;;30.31;41.32;101165.34;4914587;29;20059;-83
2022/08/07 00:02:56;;;;;;;3.78;3.47;;;;;;;30.28;41.13;101166.66;4913975;29;20066;-83
2022/08/07 00:05:24;;;;;;;5.40;2.80;;;;;;;30.30;41.32;101169.16;4929183;29;20119;-83
2022/08/07 00:07:53;;;;;;;3.72;3.13;;;;;;;30.18;41.18;101155.56;4928346;29;20458;-85
2022/08/07 00:10:31;;;;;;;3.75;3.38;;;;;;;30.15;41.24;101134.19;4913085;29;20250;-84
2022/08/07 00:13:01;;;;;;;3.30;3.00;;;;;;;30.39;41.08;101178.56;4914518;29;20048;-84
2022/08/07 00:15:50;;;;;;;4.28;3.08;;;;;;;30.23;41.25;101159.19;4927895;29;20486;-83
2022/08/07 00:18:22;;;;;;;5.57;2.92;;;;;;;30.36;41.33;101179.91;4914839;29;20101;-84
2022/08/07 00:21:00;;;;;;;3.85;3.55;;;;;;;29.89;41.20;101103.72;4931014;29;20697;-84
2022/08/07 00:23:36;;;;;;;4.78;3.20;;;;;;;30.28;41.25;101161.19;4933640;29;20066;-85
2022/08/07 00:26:09;;;;;;;4.13;3.38;;;;;;;30.34;40.95;101176.63;4937307;29;20066;-83
2022/08/07 00:28:56;;;;;;;4.00;3.65;;;;;;;29.88;41.14;101101.22;4939899;29;20048;-86
2022/08/07 00:31:24;;;;;;;3.83;3.53;;;;;;;30.16;41.25;101144.84;4940933;29;20048;-84
2022/08/07 00:34:07;;;;;;;3.58;3.28;;;;;;;30.07;41.38;101145.53;4930643;29;20102;-85
2022/08/07 00:36:35;;;;;;;3.75;3.45;;;;;;;29.96;41.33;101136.38;4917918;29;20364;-84
2022/08/07 00:39:08;;;;;;;3.47;3.17;;;;;;;29.16;41.85;101013.47;4915565;29;20052;-85
2022/08/07 00:41:53;;;;;;;6.20;3.70;;;;;;;30.17;42.08;101170.31;4929356;29;20064;-83
2022/08/07 00:44:27;;;;;;;4.05;3.65;;;;;;;30.11;43.38;101171.34;4933552;29;20063;-83
2022/08/07 00:46:54;;;;;;;7.70;3.90;;;;;;;29.61;43.11;101091.81;4948361;28;20131;-83
2022/08/07 00:49:21;;;;;;;4.13;3.67;;;;;;;29.31;43.61;101042.13;4934472;28;20048;-85
2022/08/07 00:52:08;;;;;;;5.28;4.28;;;;;;;30.09;43.96;101173.50;4952997;28;20071;-84
2022/08/07 00:54:35;;;;;;;5.53;4.32;;;;;;;29.16;44.40;101046.28;4958075;29;20099;-83
2022/08/07 00:57:07;;;;;;;6.70;4.07;;;;;;;29.98;44.61;101170.63;4935577;29;20183;-84
2022/08/07 00:59:36;;;;;;;4.32;4.03;;;;;;;29.16;44.47;101043.56;4948157;29;20067;-82
2022/08/07 01:02:05;;;;;;;6.30;4.28;;;;;;;30.08;44.32;101171.88;4932465;29;20406;-83
2022/08/07 01:04:52;;;;;;;5.55;4.85;;;;;;;29.65;44.73;101118.66;4933411;28;20493;-83
2022/08/07 01:07:23;;;;;;;3.97;3.67;;;;;;;29.90;45.07;101184.72;4932235;29;20039;-84
2022/08/07 01:09:53;;;;;;;5.38;4.57;;;;;;;29.67;45.77;101149.38;4948358;29;20524;-84
2022/08/07 01:12:36;;;;;;;6.35;5.00;;;;;;;29.59;46.36;101142.41;4946441;29;20065;-84
2022/08/07 01:15:06;;;;;;;6.00;5.03;;;;;;;29.61;46.41;101162.09;4932029;29;20048;-82
2022/08/07 01:17:37;;;;;;;8.50;5.20;;;;;;;29.13;47.39;101122.50;4932038;29;20474;-83
2022/08/07 01:20:11;;;;;;;5.93;5.50;;;;;;;29.39;47.10;101160.09;4947756;29;20052;-82
2022/08/07 01:22:42;;;;;;;6.40;4.40;;;;;;;29.54;46.93;101205.19;4947176;29;20142;-83
2022/08/07 01:25:27;;;;;;;6.05;4.43;;;;;;;29.21;46.96;101173.22;4932502;29;20497;-83
2022/08/07 01:28:14;;;;;;;4.53;4.13;;;;;;;29.10;46.71;101164.81;4932238;29;20088;-80
2022/08/07 01:30:41;;;;;;;6.32;3.70;;;;;;;28.96;46.83;101163.44;4948037;29;20047;-82
2022/08/07 01:33:07;;;;;;;7.20;4.43;;;;;;;29.08;46.61;101194.31;4947890;29;20057;-83
2022/08/07 01:35:35;;;;;;;4.32;3.97;;;;;;;29.07;46.86;101200.84;4932093;29;20055;-85
2022/08/07 01:38:21;;;;;;;4.63;3.60;;;;;;;29.01;46.99;101196.34;4945382;29;20051;-83
2022/08/07 01:40:54;;;;;;;4.70;3.70;;;;;;;28.58;46.56;101132.13;4947340;29;20514;-83
2022/08/07 01:43:21;;;;;;;5.78;4.10;;;;;;;28.84;46.59;101168.97;4931194;29;20052;-83
2022/08/07 01:45:53;;;;;;;5.20;3.97;;;;;;;28.85;46.58;101186.19;4931988;29;20074;-83
2022/08/07 01:48:20;;;;;;;5.72;3.58;;;;;;;28.86;46.45;101193.28;4932498;28;20695;-83
2022/08/07 01:50:59;;;;;;;7.13;4.53;;;;;;;28.88;46.02;101197.44;4946341;29;20063;-83
2022/08/07 01:53:49;;;;;;;4.80;3.38;;;;;;;28.68;46.59;101175.19;4931533;29;20043;-83
2022/08/07 01:57:00;;;;;;;4.20;3.88;;;;;;;28.91;46.51;101213.38;4931299;29;20055;-83
2022/08/07 01:59:40;;;;;;;4.00;3.60;;;;;;;28.68;46.55;101169.75;4947552;28;20102;-84
2022/08/07 02:02:16;;;;;;;3.95;3.65;;;;;;;28.82;46.46;101203.06;4931788;29;20066;-84
2022/08/07 02:05:08;;;;;;;4.35;3.88;;;;;;;28.87;46.16;101194.97;4932996;29;20241;-83
2022/08/07 02:07:56;;;;;;;7.72;4.15;;;;;;;28.97;46.11;101227.97;4932616;28;20134;-83
2022/08/07 02:10:26;;;;;;;4.10;3.70;;;;;;;28.73;46.37;101178.84;4946638;29;20055;-85
2022/08/07 02:12:57;;;;;;;5.22;3.88;;;;;;;28.58;45.83;101162.19;4947478;29;20110;-83
2022/08/07 02:15:26;;;;;;;3.50;3.20;;;;;;;28.49;46.41;101163.63;4931004;29;20058;-84
2022/08/07 02:17:55;;;;;;;3.63;3.33;;;;;;;28.62;46.58;101212.53;4932390;29;20055;-84
2022/08/07 02:20:22;;;;;;;5.72;3.60;;;;;;;28.50;46.67;101196.16;4932043;29;20052;-84
2022/08/07 02:22:57;;;;;;;3.28;3.08;;;;;;;28.39;46.39;101198.88;4946683;29;20044;-83
2022/08/07 02:25:27;;;;;;;3.20;3.00;;;;;;;28.16;46.33;101156.91;4946890;29;20059;-83
2022/08/07 02:28:15;;;;;;;6.32;3.45;;;;;;;27.96;46.30;101121.81;4932268;29;20047;-84
2022/08/07 02:30:54;;;;;;;3.67;3.15;;;;;;;27.95;46.06;101122.06;4932873;29;20063;-83
2022/08/07 02:33:24;;;;;;;3.28;3.03;;;;;;;28.41;46.40;101189.38;4946755;29;20123;-83
2022/08/07 02:36:08;;;;;;;3.35;3.05;;;;;;;28.38;46.39;101175.41;4945026;29;20056;-83
2022/08/07 02:39:01;;;;;;;8.70;3.30;;;;;;;28.57;46.24;101206.97;4944055;29;20143;-84
2022/08/07 02:41:49;;;;;;;4.63;2.95;;;;;;;28.28;46.32;101170.53;4944652;29;20056;-82
2022/08/07 02:44:24;;;;;;;3.25;3.00;;;;;;;28.23;46.29;101162.22;4945469;29;20070;-83
2022/08/07 02:47:01;;;;;;;2.90;2.70;;;;;;;28.46;46.16;101205.91;4932413;29;20051;-83
2022/08/07 02:49:29;;;;;;;5.30;3.00;;;;;;;28.46;46.50;101200.44;4932799;29;20074;-84
2022/08/07 02:52:25;;;;;;;3.25;2.42;;;;;;;27.46;46.62;101038.59;4937652;29;20044;-84
2022/08/07 02:55:03;;;;;;;3.58;3.10;;;;;;;28.01;46.29;101115.63;4936104;29;20146;-83
2022/08/07 02:57:32;;;;;;;3.38;3.08;;;;;;;27.54;46.43;101042.03;4947123;29;20478;-84
2022/08/07 03:00:03;;;;;;;2.85;2.50;;;;;;;27.30;46.34;101017.50;4946056;29;20048;-84
2022/08/07 03:02:40;;;;;;;2.85;2.65;;;;;;;28.28;46.38;101163.19;4945023;29;20498;-85
2022/08/07 03:05:20;;;;;;;4.82;2.88;;;;;;;27.59;46.05;101050.31;4944692;28;20059;-84
2022/08/07 03:07:50;;;;;;;4.22;2.35;;;;;;;28.42;45.50;101179.28;4943675;29;20107;-84
2022/08/07 03:10:37;;;;;;;2.53;2.33;;;;;;;28.05;45.41;101116.81;4931621;29;20047;-83
2022/08/07 03:13:16;;;;;;;2.80;2.60;;;;;;;28.54;45.59;101185.56;4930442;29;20055;-83
2022/08/07 03:15:46;;;;;;;2.75;2.28;;;;;;;28.65;45.03;101192.91;4930379;29;20462;-84
2022/08/07 03:18:22;;;;;;;3.17;2.67;;;;;;;28.31;44.84;101138.13;4944849;29;20549;-85
2022/08/07 03:21:00;;;;;;;2.53;2.28;;;;;;;28.68;44.40;101186.94;4944688;29;20438;-83
2022/08/07 03:23:27;;;;;;;2.70;2.50;;;;;;;28.86;44.53;101194.16;4945685;29;20087;-84
2022/08/07 03:26:18;;;;;;;3.17;2.60;;;;;;;28.47;44.42;101135.72;4943779;29;20134;-83
2022/08/07 03:28:49;;;;;;;6.15;2.70;;;;;;;27.60;44.98;101005.59;4929868;29;20047;-84
2022/08/07 03:31:19;;;;;;;2.50;2.30;;;;;;;28.46;44.67;101151.28;4930567;29;20106;-84
2022/08/07 03:34:10;;;;;;;3.45;2.33;;;;;;;28.64;44.96;101193.13;4943553;29;20177;-83
2022/08/07 03:36:49;;;;;;;2.88;2.40;;;;;;;28.60;44.89;101189.25;4944892;29;20048;-84
2022/08/07 03:39:17;;;;;;;2.70;2.50;;;;;;;28.55;44.65;101195.44;4929807;29;20146;-83
2022/08/07 03:42:05;;;;;;;3.17;2.88;;;;;;;28.42;45.25;101184.75;4930891;29;20059;-82
2022/08/07 03:44:37;;;;;;;2.30;2.20;;;;;;;27.98;44.92;101111.47;4945450;29;20477;-85
2022/08/07 03:47:05;;;;;;;2.95;2.30;;;;;;;28.24;44.89;101155.72;4931281;29;20048;-86
2022/08/07 03:49:41;;;;;;;3.92;2.60;;;;;;;28.48;44.93;101200.22;4929897;29;20490;-84
2022/08/07 03:52:21;;;;;;;2.28;2.08;;;;;;;28.38;45.08;101191.78;4930034;29;20044;-83
2022/08/07 03:55:03;;;;;;;3.17;2.70;;;;;;;28.44;44.63;101191.63;4929821;29;20059;-84
2022/08/07 03:57:35;;;;;;;2.83;2.63;;;;;;;28.37;45.03;101198.28;4930200;29;20073;-83
2022/08/07 04:00:23;;;;;;;2.67;2.17;;;;;;;28.42;45.03;101214.78;4930034;29;20224;-84
2022/08/07 04:02:57;;;;;;;3.60;2.28;;;;;;;28.23;45.29;101187.66;4945022;29;20375;-83
2022/08/07 04:05:24;;;;;;;2.33;2.13;;;;;;;28.21;45.11;101175.31;4945576;29;20486;-83
2022/08/07 04:08:11;;;;;;;3.10;2.50;;;;;;;28.42;44.92;101209.31;4941050;28;20043;-84
2022/08/07 04:10:44;;;;;;;3.30;2.45;;;;;;;28.03;44.96;101151.69;4930890;29;20407;-83
2022/08/07 04:13:32;;;;;;;2.53;2.33;;;;;;;28.02;44.95;101160.97;4929871;29;20055;-85
2022/08/07 04:16:19;;;;;;;2.92;2.30;;;;;;;28.15;45.00;101170.78;4942973;29;20512;-82
2022/08/07 04:18:58;;;;;;;2.80;2.60;;;;;;;28.34;45.03;101215.97;4944327;29;20365;-83
2022/08/07 04:21:30;;;;;;;2.78;2.13;;;;;;;28.22;45.25;101188.69;4933023;29;20212;-82
2022/08/07 04:24:00;;;;;;;2.95;2.75;;;;;;;28.15;45.44;101193.44;4934528;29;20142;-82
2022/08/07 04:26:33;;;;;;;3.40;2.83;;;;;;;28.04;45.61;101172.47;4948892;29;20146;-83
2022/08/07 04:29:00;;;;;;;2.63;2.42;;;;;;;28.15;45.38;101198.91;4949246;29;20058;-84
2022/08/07 04:31:29;;;;;;;2.55;2.40;;;;;;;27.49;45.31;101070.81;4949603;29;20055;-84
2022/08/07 04:34:16;;;;;;;3.92;2.58;;;;;;;27.70;45.57;101114.94;4947001;29;20203;-82
2022/08/07 04:36:59;;;;;;;3.35;2.40;;;;;;;28.05;45.39;101185.03;4962323;29;20066;-85
2022/08/07 04:39:28;;;;;;;3.13;2.67;;;;;;;28.21;45.75;101219.81;4966894;29;20047;-84
2022/08/07 04:42:02;;;;;;;3.10;2.28;;;;;;;28.16;46.04;101227.88;4953298;28;20513;-86
2022/08/07 04:44:29;;;;;;;3.03;2.72;;;;;;;28.15;45.96;101234.38;4959282;29;20048;-83
2022/08/07 04:47:15;;;;;;;2.40;2.20;;;;;;;28.03;46.31;101214.47;4945716;29;20099;-85
2022/08/07 04:50:09;;;;;;;3.75;2.47;;;;;;;28.16;46.12;101233.34;4945934;29;20059;-83
2022/08/07 04:52:52;;;;;;;2.80;2.60;;;;;;;28.25;46.15;101226.44;4943897;29;20059;-85
2022/08/07 04:55:22;;;;;;;2.70;2.50;;;;;;;28.30;45.60;101226.56;4937157;29;20055;-82
2022/08/07 04:58:37;;;;;;;5.05;2.80;;;;;;;28.13;46.74;101217.41;4946445;29;20067;-83
2022/08/07 05:01:50;;;;;;;2.72;2.53;;;;;;;27.90;46.28;101185.53;4932152;29;20238;-82
2022/08/07 05:04:30;;;;;;;2.92;2.67;;;;;;;28.25;46.15;101248.25;4931532;29;20094;-82
2022/08/07 05:07:10;;;;;;;3.03;2.75;;;;;;;28.20;46.54;101242.69;4948203;29;20059;-81
2022/08/07 05:09:58;;;;;;;3.15;2.80;;;;;;;28.09;46.43;101238.09;4934306;29;20103;-83
2022/08/07 05:12:34;;;;;;;3.38;3.08;;;;;;;28.15;47.22;101256.22;4948002;28;20055;-82
2022/08/07 05:15:25;;;;;;;3.05;2.85;;;;;;;28.10;46.58;101237.00;4948353;29;20662;-84
2022/08/07 05:18:06;;;;;;;4.25;2.60;;;;;;;28.11;46.67;101231.31;4948128;28;20557;-83
2022/08/07 05:20:44;;;;;;;3.63;2.63;;;;;;;28.28;46.37;101260.63;4947865;29;20062;-84
2022/08/07 05:23:24;;;;;;;3.03;2.83;;;;;;;28.31;46.65;101260.97;4931505;29;20052;-85
2022/08/07 05:25:58;;;;;;;5.93;3.22;;;;;;;28.29;46.24;101252.19;4946534;28;20051;-85
2022/08/07 05:28:47;;;;;;;4.53;3.40;;;;;;;28.26;46.60;101249.94;4944933;28;20138;-84
2022/08/07 05:31:18;;;;;;;4.57;3.00;;;;;;;28.47;46.54;101264.06;4947664;28;20118;-83
2022/08/07 05:33:51;;;;;;;3.63;3.33;;;;;;;28.49;46.74;101270.94;4947738;28;20054;-83
2022/08/07 05:36:33;;;;;;;3.67;3.38;;;;;;;27.35;47.10;101096.66;4933555;28;20044;-82
2022/08/07 05:39:01;;;;;;;5.45;3.78;;;;;;;27.97;46.53;101201.78;4933076;29;20070;-84
2022/08/07 05:41:50;;;;;;;3.83;3.53;;;;;;;27.19;46.38;101075.56;4933234;29;20107;-83
2022/08/07 05:44:32;;;;;;;3.92;3.35;;;;;;;28.30;46.89;101240.22;4927071;29;20066;-82
2022/08/07 05:47:00;;;;;;;4.30;3.70;;;;;;;28.47;47.34;101280.44;4912869;29;20056;-83
2022/08/07 05:49:46;;;;;;;5.28;3.35;;;;;;;28.48;46.65;101284.88;4914227;29;20424;-81
2022/08/07 05:52:13;;;;;;;3.58;3.25;;;;;;;28.23;47.46;101258.63;4931629;29;20106;-82
2022/08/07 05:54:45;;;;;;;4.05;3.65;;;;;;;28.11;47.38;101244.16;4946601;29;20043;-84
2022/08/07 05:57:23;;;;;;;7.15;3.88;;;;;;;28.30;47.69;101280.31;4946125;28;20115;-84
2022/08/07 05:59:58;;;;;;;4.63;4.03;;;;;;;28.01;47.56;101225.63;4946711;28;20039;-83
2022/08/07 06:02:27;;;;;;;3.90;3.60;;;;;;;28.12;47.76;101245.78;4946832;29;20098;-85
2022/08/07 06:05:02;;;;;;;5.03;3.88;;;;;;;27.75;47.87;101183.25;4947274;28;20312;-83
2022/08/07 06:07:30;;;;;;;5.65;4.22;;;;;;;28.29;47.99;101260.38;4932146;29;20044;-82
2022/08/07 06:10:17;;;;;;;4.68;4.22;;;;;;;28.52;48.11;101286.03;4944815;29;20052;-84
2022/08/07 06:12:46;;;;;;;5.50;5.00;;;;;;;28.15;47.45;101215.28;4931215;29;20048;-83
2022/08/07 06:15:14;;;;;;;5.32;4.00;;;;;;;28.15;47.73;101217.19;4931438;29;20446;-81
2022/08/07 06:17:46;;;;;;;5.45;4.05;;;;;;;28.53;47.59;101287.69;4931261;29;20146;-83
2022/08/07 06:20:22;;;;;;;4.35;4.03;;;;;;;28.60;47.44;101293.88;4946044;29;20158;-84
2022/08/07 06:22:59;;;;;;;5.25;4.75;;;;;;;27.72;47.58;101159.19;4931022;29;20056;-83
2022/08/07 06:25:46;;;;;;;4.90;4.07;;;;;;;28.46;47.42;101254.22;4944292;29;20394;-82
2022/08/07 06:28:23;;;;;;;8.48;4.50;;;;;;;28.58;47.86;101274.16;4945277;29;20454;-83
2022/08/07 06:30:54;;;;;;;4.72;4.35;;;;;;;28.67;48.18;101300.03;4930955;29;20168;-84
2022/08/07 06:33:21;;;;;;;5.68;5.15;;;;;;;28.61;47.81;101289.22;4931734;29;20100;-85
2022/08/07 06:35:48;;;;;;;6.15;4.75;;;;;;;28.65;48.24;101302.16;4946817;29;20048;-83
2022/08/07 06:38:35;;;;;;;6.18;5.03;;;;;;;28.69;48.03;101303.38;4942450;29;20218;-83
2022/08/07 06:41:06;;;;;;;6.13;5.40;;;;;;;28.50;48.21;101296.38;4943649;29;20440;-83
2022/08/07 06:43:40;;;;;;;6.80;5.50;;;;;;;28.31;48.05;101257.41;4942276;28;20506;-83
2022/08/07 06:46:25;;;;;;;8.85;4.85;;;;;;;28.33;48.23;101283.41;4909784;29;20048;-84
2022/08/07 06:49:00;;;;;;;6.45;5.20;;;;;;;28.33;48.26;101280.69;4927225;29;20048;-83
2022/08/07 06:51:33;;;;;;;6.82;5.00;;;;;;;28.55;48.31;101312.88;4915978;29;20052;-85
2022/08/07 06:54:03;;;;;;;6.88;5.00;;;;;;;28.21;48.71;101293.50;4927981;29;20103;-84
2022/08/07 06:56:51;;;;;;;5.28;4.78;;;;;;;28.36;48.87;101333.16;4911979;29;20052;-83
2022/08/07 06:59:31;;;;;;;9.55;4.75;;;;;;;28.05;49.31;101311.41;4927005;29;20530;-83
2022/08/07 07:02:20;;;;;;;5.85;4.45;;;;;;;28.02;49.14;101298.25;4928069;29;20085;-82
2022/08/07 07:05:08;;;;;;;7.45;5.05;;;;;;;28.20;49.71;101342.88;4929758;29;20151;-82
2022/08/07 07:07:38;;;;;;;7.43;5.30;;;;;;;27.92;50.27;101314.38;4945383;29;20482;-83
2022/08/07 07:10:34;;;;;;;7.55;5.13;;;;;;;28.06;51.66;101347.69;4930241;29;20127;-83
2022/08/07 07:13:13;;;;;;;5.82;5.18;;;;;;;27.90;51.83;101341.03;4930018;29;20063;-82
2022/08/07 07:15:45;;;;;;;8.50;6.07;;;;;;;27.59;53.51;101312.94;4945804;29;20509;-84
2022/08/07 07:18:54;;;;;;;6.15;5.60;;;;;;;27.55;55.55;101335.44;4945121;29;20458;-82
2022/08/07 07:21:25;;;;;;;6.40;5.85;;;;;;;27.12;55.47;101274.56;4910091;29;20052;-82
2022/08/07 07:24:09;;;;;;;9.30;5.03;;;;;;;27.47;56.60;101342.06;4930252;29;20044;-81
2022/08/07 07:26:43;;;;;;;8.32;5.60;;;;;;;27.49;55.65;101327.13;4931338;29;20091;-82
2022/08/07 07:29:24;;;;;;;7.97;5.82;;;;;;;27.68;54.85;101322.44;4944337;29;20063;-83
2022/08/07 07:32:13;;;;;;;9.90;5.50;;;;;;;27.67;54.88;101328.97;4931330;29;20374;-83
2022/08/07 07:34:45;;;;;;;8.02;5.65;;;;;;;26.75;54.77;101173.00;4945683;28;20051;-83
2022/08/07 07:37:15;;;;;;;7.72;5.28;;;;;;;27.58;53.82;101292.19;4930419;29;20091;-83
2022/08/07 07:40:05;;;;;;;5.32;4.82;;;;;;;27.94;53.61;101331.34;4943284;28;20051;-83
2022/08/07 07:42:43;;;;;;;5.10;4.70;;;;;;;27.82;53.20;101305.91;4944516;29;20088;-85
2022/08/07 07:45:18;;;;;;;12.52;5.05;;;;;;;26.68;53.03;101105.03;4926002;29;20523;-83
2022/08/07 07:47:51;;;;;;;5.40;4.80;;;;;;;28.09;52.88;101309.06;4925903;29;20284;-84
2022/08/07 07:50:21;;;;;;;5.00;4.60;;;;;;;28.17;52.33;101300.50;4927073;29;20369;-84
2022/08/07 07:53:06;;;;;;;7.55;4.43;;;;;;;27.72;51.44;101211.00;4912702;29;20056;-84
2022/08/07 07:55:51;;;;;;;4.75;4.28;;;;;;;28.19;51.07;101271.06;4926567;29;20467;-83
2022/08/07 07:58:28;;;;;;;3.92;3.63;;;;;;;28.47;49.97;101316.81;4930225;29;20494;-83
2022/08/07 08:00:57;;;;;;;3.97;3.67;;;;;;;28.19;49.45;101249.22;4949359;28;20516;-85
2022/08/07 08:03:28;;;;;;;4.20;3.90;;;;;;;28.08;48.22;101204.47;4948741;29;20066;-85
2022/08/07 08:06:18;;;;;;;3.80;3.50;;;;;;;28.64;48.40;101292.31;4934626;29;20426;-84
2022/08/07 08:08:49;;;;;;;3.72;3.15;;;;;;;28.57;48.38;101256.13;4948900;29;20048;-84
2022/08/07 08:11:16;;;;;;;3.88;3.58;;;;;;;28.64;47.12;101234.13;4949733;29;20114;-84
2022/08/07 08:14:03;;;;;;;3.40;3.20;;;;;;;28.67;47.54;101214.53;4933982;29;20080;-84
2022/08/07 08:16:42;;;;;;;3.88;3.58;;;;;;;27.90;46.02;101065.47;4933827;29;20051;-82
2022/08/07 08:19:23;;;;;;;3.63;3.33;;;;;;;29.25;46.21;101261.84;4948705;29;20075;-83
2022/08/07 08:28:11;;;;;;;3.40;3.10;;;;;;;29.46;45.34;101233.78;4935346;29;20501;-85
2022/08/07 08:30:44;;;;;;;3.80;3.38;;;;;;;29.71;44.87;101265.44;4934867;29;20502;-83
2022/08/07 08:33:21;;;;;;;3.53;3.33;;;;;;;29.81;45.06;101282.03;4934236;28;20052;-84
2022/08/07 08:35:50;;;;;;;3.28;3.08;;;;;;;29.88;44.96;101277.22;4948689;28;20051;-84
2022/08/07 08:38:20;;;;;;;3.33;3.05;;;;;;;29.96;45.02;101278.72;4948773;29;20357;-84
2022/08/07 08:41:28;;;;;;;3.55;3.25;;;;;;;29.93;44.93;101279.19;4948154;29;20065;-84
2022/08/07 08:44:23;;;;;;;3.45;3.10;;;;;;;29.87;44.67;101272.81;4946539;29;20047;-83
2022/08/07 08:47:05;;;;;;;3.70;3.40;;;;;;;30.00;44.80;101279.84;4949230;29;20089;-84
2022/08/07 08:49:49;;;;;;;3.65;3.35;;;;;;;29.98;44.60;101282.03;4953053;29;20055;-83
2022/08/07 08:52:35;;;;;;;3.88;3.58;;;;;;;30.21;44.62;101270.06;4941342;29;20056;-84
2022/08/07 08:55:37;;;;;;;3.88;3.58;;;;;;;30.11;44.61;101265.25;4947069;28;20052;-84
2022/08/07 08:58:55;;;;;;;4.60;3.85;;;;;;;30.21;44.89;101270.06;4932835;29;20071;-84
2022/08/07 09:01:42;;;;;;;3.97;3.67;;;;;;;30.20;45.09;101279.34;4949682;28;20087;-83
2022/08/07 09:04:36;;;;;;;3.65;3.38;;;;;;;30.37;44.68;101271.97;4948612;29;20514;-84
2022/08/07 09:07:30;;;;;;;3.65;3.35;;;;;;;29.44;44.71;101132.00;4933716;29;20107;-84
2022/08/07 09:10:31;;;;;;;3.20;3.00;;;;;;;30.23;44.13;101256.94;4947033;29;20055;-83
2022/08/07 09:13:16;;;;;;;3.40;3.20;;;;;;;30.49;43.86;101273.75;4934340;29;20430;-83
2022/08/07 09:15:57;;;;;;;3.50;3.20;;;;;;;30.19;43.83;101233.88;4949674;29;20457;-85
2022/08/07 09:19:10;;;;;;;7.05;3.42;;;;;;;30.39;43.73;101261.59;4938077;29;20518;-84
2022/08/07 09:22:17;;;;;;;3.33;3.13;;;;;;;30.42;43.83;101265.72;4958594;28;20052;-82
2022/08/07 09:25:36;;;;;;;3.30;3.00;;;;;;;30.53;43.71;101261.22;4955358;28;20537;-81
2022/08/07 09:28:10;;;;;;;3.63;3.15;;;;;;;30.36;44.20;101231.94;4935424;29;20083;-80
2022/08/07 09:31:10;;;;;;;8.80;3.75;;;;;;;30.68;43.98;101258.66;4948564;28;20130;-81
2022/08/07 09:33:46;;;;;;;4.60;3.30;;;;;;;30.79;43.90;101254.97;4918090;29;20195;-81
2022/08/07 09:36:38;;;;;;;3.00;2.80;;;;;;;30.88;43.49;101248.00;4930825;29;20058;-81
2022/08/07 09:39:22;;;;;;;3.60;3.30;;;;;;;30.72;43.68;101215.97;4925803;29;20055;-81
2022/08/07 09:42:17;;;;;;;4.40;3.77;;;;;;;31.01;43.06;101254.16;4942648;28;20176;-82
2022/08/07 09:45:03;;;;;;;7.13;5.60;;;;;;;31.09;43.08;101223.53;4929860;29;20478;-82
2022/08/07 09:48:26;;;;;;;4.40;4.00;;;;;;;31.42;42.94;101240.88;4929436;29;20146;-81
2022/08/07 09:51:06;;;;;;;3.10;2.90;;;;;;;31.66;42.25;101244.94;4915388;29;20063;-80
2022/08/07 09:53:58;;;;;;;3.58;3.28;;;;;;;31.35;41.59;101174.41;4929707;29;20148;-82
2022/08/07 09:56:31;;;;;;;5.07;3.47;;;;;;;32.00;40.98;101236.44;4913935;29;20079;-82
2022/08/07 09:59:12;;;;;;;4.65;3.15;;;;;;;31.99;41.32;101234.75;4914861;29;20059;-82
2022/08/07 10:01:40;;;;;;;3.33;3.13;;;;;;;31.80;41.53;101236.25;4945764;29;20151;-83
2022/08/07 10:04:48;;;;;;;4.15;3.10;;;;;;;31.75;41.36;101223.34;4942655;29;20075;-81
2022/08/07 10:07:57;;;;;;;4.18;3.78;;;;;;;31.98;41.07;101227.63;4932209;29;20318;-82
2022/08/07 10:10:33;;;;;;;6.22;3.35;;;;;;;32.23;40.67;101223.38;4947077;29;20055;-83
2022/08/07 10:13:32;;;;;;;5.93;4.40;;;;;;;32.31;39.63;101222.91;4944472;28;20055;-82
2022/08/07 10:16:48;;;;;;;3.28;3.08;;;;;;;32.52;39.41;101227.41;4919848;29;20395;-83
2022/08/07 10:19:18;;;;;;;4.70;3.85;;;;;;;32.38;38.65;101181.41;4923134;29;20047;-82
2022/08/07 10:21:55;;;;;;;3.22;2.75;;;;;;;32.59;38.84;101218.09;4946912;29;20048;-83
2022/08/07 10:25:03;;;;;;;5.03;3.15;;;;;;;31.95;38.24;101090.06;4915328;28;20062;-82
2022/08/07 10:28:07;;;;;;;3.58;3.28;;;;;;;32.96;36.71;101227.00;4924783;29;20494;-81
2022/08/07 10:31:09;;;;;;;4.38;4.05;;;;;;;32.92;40.35;101231.41;4945745;29;20059;-82
2022/08/07 10:33:55;;;;;;;4.55;4.15;;;;;;;32.85;40.77;101236.31;4872075;29;20546;-81
2022/08/07 10:36:51;;;;;;;6.25;4.55;;;;;;;32.63;41.66;101236.53;4878960;29;20123;-82
2022/08/07 10:39:44;;;;;;;4.78;4.07;;;;;;;32.57;41.77;101226.59;4884584;29;20195;-82
2022/08/07 10:42:37;;;;;;;5.50;4.22;;;;;;;32.71;41.85;101225.00;4886950;29;20111;-83
2022/08/07 10:45:22;;;;;;;8.35;4.22;;;;;;;32.85;41.11;101227.25;4852003;29;20163;-83
2022/08/07 10:48:40;;;;;;;4.18;3.58;;;;;;;32.83;41.24;101224.75;4851391;29;20604;-81
2022/08/07 10:51:19;;;;;;;5.15;4.68;;;;;;;32.88;42.08;101229.47;4821931;29;20175;-82
2022/08/07 10:54:24;;;;;;;5.55;5.05;;;;;;;32.71;42.82;101226.94;4854069;29;20638;-82
2022/08/07 10:56:53;;;;;;;10.85;4.72;;;;;;;32.42;43.16;101188.84;4834772;29;20496;-82
2022/08/07 10:59:40;;;;;;;5.57;4.45;;;;;;;32.74;43.22;101218.13;4833622;29;20534;-82
2022/08/07 11:02:15;;;;;;;7.20;5.07;;;;;;;32.68;42.83;101236.53;4866675;29;20451;-83
2022/08/07 11:05:27;;;;;;;5.82;5.05;;;;;;;32.48;43.46;101237.25;4849970;29;20060;-82
2022/08/07 11:08:32;;;;;;;5.28;4.70;;;;;;;32.52;43.03;101232.06;4836966;29;20068;-83
2022/08/07 11:11:12;;;;;;;5.35;4.20;;;;;;;32.46;43.04;101236.69;4849070;29;20121;-83
2022/08/07 11:13:54;;;;;;;5.65;4.57;;;;;;;31.71;43.23;101190.09;4833579;29;20440;-82
2022/08/07 11:16:50;;;;;;;5.88;4.28;;;;;;;31.78;43.74;101227.47;4854587;29;20052;-83
2022/08/07 11:19:59;;;;;;;4.53;3.90;;;;;;;31.54;43.33;101164.72;4882530;29;20221;-84
2022/08/07 11:22:34;;;;;;;4.63;4.32;;;;;;;32.30;42.60;101221.22;4862831;29;20079;-84
2022/08/07 11:25:21;;;;;;;4.13;3.83;;;;;;;32.60;41.71;101227.97;4905826;29;20102;-82
2022/08/07 11:28:07;;;;;;;4.55;3.67;;;;;;;32.85;40.80;101230.81;4907608;29;20208;-82
2022/08/07 11:30:52;;;;;;;4.63;3.83;;;;;;;32.91;41.21;101229.72;4939049;28;20043;-82
2022/08/07 11:33:44;;;;;;;4.65;4.25;;;;;;;32.96;40.75;101227.00;4926459;29;20514;-82
2022/08/07 11:36:52;;;;;;;3.92;3.47;;;;;;;33.24;40.13;101233.13;4925544;29;20057;-82
2022/08/07 11:39:53;;;;;;;3.60;3.30;;;;;;;33.39;39.71;101224.88;4924054;29;20060;-82
2022/08/07 11:42:50;;;;;;;4.43;3.90;;;;;;;33.45;39.30;101216.63;4938397;29;20052;-82
2022/08/07 11:45:33;;;;;;;3.75;3.35;;;;;;;33.67;38.48;101221.88;4940197;29;20119;-82
2022/08/07 11:48:29;;;;;;;3.60;3.30;;;;;;;32.94;37.64;101064.22;4926921;29;20066;-81
2022/08/07 11:50:58;;;;;;;3.15;2.95;;;;;;;34.12;37.44;101201.72;4951243;28;20062;-83
2022/08/07 11:53:51;;;;;;;3.40;3.20;;;;;;;34.36;37.22;101199.16;4947462;29;20401;-83
2022/08/07 11:56:47;;;;;;;;;;;;;;;34.16;36.78;101183.53;4955189;29;20080;-83
2022/08/07 11:59:31;;;;;;;3.92;3.58;;;;;;;34.35;36.78;101182.91;4924549;29;20009;-83
2022/08/07 12:03:06;;;;;;;3.92;3.28;;;;;;;34.13;36.66;101173.09;4936346;29;20350;-83
2022/08/07 12:05:59;;;;;;;3.55;3.17;;;;;;;33.61;37.65;101160.50;4919748;29;20052;-83
2022/08/07 12:08:57;;;;;;;3.80;3.50;;;;;;;33.51;37.48;101171.50;4937030;29;20139;-83
2022/08/07 12:11:29;;;;;;;4.10;3.25;;;;;;;33.30;37.50;101135.72;4940138;29;20451;-83
2022/08/07 12:14:20;;;;;;;3.53;3.22;;;;;;;33.25;37.42;101152.25;4939806;29;20406;-83
2022/08/07 12:16:54;;;;;;;3.22;3.03;;;;;;;33.32;37.43;101141.78;4924114;29;20047;-84
2022/08/07 12:19:42;;;;;;;4.68;3.78;;;;;;;33.31;37.69;101161.34;4939791;29;20059;-83
2022/08/07 12:23:03;;;;;;;;;;;;;;;33.09;38.14;101153.34;4937253;29;20052;-83
2022/08/07 12:25:59;;;;;;;3.53;3.28;;;;;;;32.80;39.03;101134.59;4923748;29;20268;-83
2022/08/07 12:28:55;;;;;;;5.60;3.60;;;;;;;32.80;38.88;101145.59;4924861;29;20048;-83
2022/08/07 12:31:50;;;;;;;3.75;3.45;;;;;;;32.65;38.95;101142.78;4938946;29;20047;-82
2022/08/07 12:34:30;;;;;;;3.63;3.33;;;;;;;32.34;39.88;101095.97;4932833;29;20095;-83
2022/08/07 12:36:59;;;;;;;4.55;3.65;;;;;;;32.30;40.11;101105.84;4924599;29;20047;-83
2022/08/07 12:39:30;;;;;;;3.95;3.58;;;;;;;32.21;41.02;101129.44;4922773;29;20221;-82